sensor_id;sensor_type;location;lat;lon;timestamp;pressure;altitude;pressure_sealevel;temperature;humidity
6028;BME280;3042;43.194;27.646;2022-07-06T00:00:04;101368.88;;;24.51;100.00
6028;BME280;3042;43.194;27.646;2022-07-06T00:02:32;101356.53;;;24.44;100.00
6028;BME280;3042;43.194;27.646;2022-07-06T00:04:59;101353.06;;;24.42;100.00
6028;BME280;3042;43.194;27.646;2022-07-06T00:07:27;101353.91;;;24.42;100.00
6028;BME280;3042;43.194;27.646;2022-07-06T00:09:54;101346.00;;;24.32;100.00
6028;BME280;3042;43.194;27.646;2022-07-06T00:12:21;101342.50;;;24.30;100.00
6028;BME280;3042;43.194;27.646;2022-07-06T00:14:48;101298.56;;;24.01;100.00
6028;BME280;3042;43.194;27.646;2022-07-06T00:17:17;101353.94;;;24.38;100.00
6028;BME280;3042;43.194;27.646;2022-07-06T00:19:45;101346.06;;;24.12;100.00
6028;BME280;3042;43.194;27.646;2022-07-06T00:22:12;101345.19;;;24.13;100.00
6028;BME280;3042;43.194;27.646;2022-07-06T00:24:39;101353.97;;;24.19;100.00
6028;BME280;3042;43.194;27.646;2022-07-06T00:27:06;101359.25;;;24.24;100.00
6028;BME280;3042;43.194;27.646;2022-07-06T00:29:34;101350.44;;;24.20;100.00
6028;BME280;3042;43.194;27.646;2022-07-06T00:32:01;101348.69;;;24.18;100.00
6028;BME280;3042;43.194;27.646;2022-07-06T00:34:30;101350.47;;;24.13;100.00
6028;BME280;3042;43.194;27.646;2022-07-06T00:36:58;101335.53;;;23.92;100.00
6028;BME280;3042;43.194;27.646;2022-07-06T00:39:25;101338.16;;;23.61;100.00
6028;BME280;3042;43.194;27.646;2022-07-06T00:41:55;101332.00;;;23.56;100.00
6028;BME280;3042;43.194;27.646;2022-07-06T00:44:22;101330.25;;;23.49;100.00
6028;BME280;3042;43.194;27.646;2022-07-06T00:46:49;101337.28;;;23.65;100.00
6028;BME280;3042;43.194;27.646;2022-07-06T00:49:17;101340.84;;;23.76;100.00
6028;BME280;3042;43.194;27.646;2022-07-06T00:52:00;101346.09;;;23.89;100.00
6028;BME280;3042;43.194;27.646;2022-07-06T00:54:30;101354.88;;;23.97;100.00
6028;BME280;3042;43.194;27.646;2022-07-06T00:56:58;101336.44;;;23.95;100.00
6028;BME280;3042;43.194;27.646;2022-07-06T00:59:27;101337.28;;;23.97;100.00
6028;BME280;3042;43.194;27.646;2022-07-06T01:01:54;101326.72;;;23.71;100.00
6028;BME280;3042;43.194;27.646;2022-07-06T01:04:21;101334.63;;;23.71;100.00
6028;BME280;3042;43.194;27.646;2022-07-06T01:06:49;101339.06;;;23.75;100.00
6028;BME280;3042;43.194;27.646;2022-07-06T01:09:18;101332.88;;;23.69;100.00
6028;BME280;3042;43.194;27.646;2022-07-06T01:11:45;101317.03;;;23.55;100.00
6028;BME280;3042;43.194;27.646;2022-07-06T01:14:14;101335.50;;;23.64;100.00
6028;BME280;3042;43.194;27.646;2022-07-06T01:16:41;101320.56;;;23.57;100.00
6028;BME280;3042;43.194;27.646;2022-07-06T01:19:08;101318.78;;;23.48;100.00
6028;BME280;3042;43.194;27.646;2022-07-06T01:21:39;101319.69;;;23.55;100.00
6028;BME280;3042;43.194;27.646;2022-07-06T01:24:06;101316.16;;;23.48;100.00
6028;BME280;3042;43.194;27.646;2022-07-06T01:26:34;101315.28;;;23.52;100.00
6028;BME280;3042;43.194;27.646;2022-07-06T01:29:01;101305.63;;;23.44;100.00
6028;BME280;3042;43.194;27.646;2022-07-06T01:31:29;101312.66;;;23.48;100.00
6028;BME280;3042;43.194;27.646;2022-07-06T01:33:56;101095.44;;;22.13;100.00
6028;BME280;3042;43.194;27.646;2022-07-06T01:36:24;101313.53;;;23.41;100.00
6028;BME280;3042;43.194;27.646;2022-07-06T01:38:53;101148.19;;;22.43;100.00
6028;BME280;3042;43.194;27.646;2022-07-06T01:41:23;101271.31;;;23.17;100.00
6028;BME280;3042;43.194;27.646;2022-07-06T01:43:51;101315.28;;;23.37;100.00
6028;BME280;3042;43.194;27.646;2022-07-06T01:46:19;101306.50;;;23.35;100.00
6028;BME280;3042;43.194;27.646;2022-07-06T01:48:46;101314.41;;;23.43;100.00
6028;BME280;3042;43.194;27.646;2022-07-06T01:51:14;101310.00;;;23.38;100.00
6028;BME280;3042;43.194;27.646;2022-07-06T01:53:41;101310.00;;;23.40;100.00
6028;BME280;3042;43.194;27.646;2022-07-06T01:56:11;101308.25;;;23.36;100.00
6028;BME280;3042;43.194;27.646;2022-07-06T01:58:39;101317.91;;;23.43;100.00
6028;BME280;3042;43.194;27.646;2022-07-06T02:01:08;101316.16;;;23.53;100.00
6028;BME280;3042;43.194;27.646;2022-07-06T02:03:35;101318.78;;;23.45;100.00
6028;BME280;3042;43.194;27.646;2022-07-06T02:06:03;101313.53;;;23.39;100.00
6028;BME280;3042;43.194;27.646;2022-07-06T02:08:31;101260.72;;;22.97;100.00
6028;BME280;3042;43.194;27.646;2022-07-06T02:10:59;101295.00;;;22.94;100.00
6028;BME280;3042;43.194;27.646;2022-07-06T02:13:28;101306.44;;;23.07;100.00
6028;BME280;3042;43.194;27.646;2022-07-06T02:15:57;101308.22;;;23.11;100.00
6028;BME280;3042;43.194;27.646;2022-07-06T02:18:24;101306.44;;;23.06;100.00
6028;BME280;3042;43.194;27.646;2022-07-06T02:20:51;101301.16;;;23.01;100.00
6028;BME280;3042;43.194;27.646;2022-07-06T02:23:19;101114.66;;;21.83;100.00
6028;BME280;3042;43.194;27.646;2022-07-06T02:25:46;101299.34;;;22.91;100.00
6028;BME280;3042;43.194;27.646;2022-07-06T02:28:13;101086.50;;;21.62;100.00
6028;BME280;3042;43.194;27.646;2022-07-06T02:30:42;101312.59;;;23.08;100.00
6028;BME280;3042;43.194;27.646;2022-07-06T02:33:09;101307.31;;;23.08;100.00
6028;BME280;3042;43.194;27.646;2022-07-06T02:35:37;101312.63;;;23.14;100.00
6028;BME280;3042;43.194;27.646;2022-07-06T02:38:07;101316.13;;;23.22;100.00
6028;BME280;3042;43.194;27.646;2022-07-06T02:40:35;101321.44;;;23.28;100.00
6028;BME280;3042;43.194;27.646;2022-07-06T02:43:02;101325.81;;;23.34;100.00
6028;BME280;3042;43.194;27.646;2022-07-06T02:45:30;101319.66;;;23.33;100.00
6028;BME280;3042;43.194;27.646;2022-07-06T02:47:59;101312.66;;;23.45;100.00
6028;BME280;3042;43.194;27.646;2022-07-06T02:50:26;101314.41;;;23.39;100.00
6028;BME280;3042;43.194;27.646;2022-07-06T02:52:54;101314.41;;;23.47;100.00
6028;BME280;3042;43.194;27.646;2022-07-06T02:55:21;101317.03;;;23.55;100.00
6028;BME280;3042;43.194;27.646;2022-07-06T02:57:48;101315.31;;;23.60;100.00
6028;BME280;3042;43.194;27.646;2022-07-06T03:00:16;101319.69;;;23.70;100.00
6028;BME280;3042;43.194;27.646;2022-07-06T03:02:43;101296.81;;;23.63;100.00
6028;BME280;3042;43.194;27.646;2022-07-06T03:05:12;101335.50;;;23.95;100.00
6028;BME280;3042;43.194;27.646;2022-07-06T03:07:39;101327.63;;;23.92;100.00
6028;BME280;3042;43.194;27.646;2022-07-06T03:10:07;101329.38;;;23.96;100.00
6028;BME280;3042;43.194;27.646;2022-07-06T03:12:35;101332.00;;;23.99;100.00
6028;BME280;3042;43.194;27.646;2022-07-06T03:15:02;101336.41;;;24.08;100.00
6028;BME280;3042;43.194;27.646;2022-07-06T03:17:30;101339.91;;;24.14;100.00
6028;BME280;3042;43.194;27.646;2022-07-06T03:19:57;101336.38;;;24.12;100.00
6028;BME280;3042;43.194;27.646;2022-07-06T03:22:26;101353.06;;;24.25;100.00
6028;BME280;3042;43.194;27.646;2022-07-06T03:24:53;101337.25;;;24.23;100.00
6028;BME280;3042;43.194;27.646;2022-07-06T03:27:20;101336.38;;;24.12;100.00
6028;BME280;3042;43.194;27.646;2022-07-06T03:29:48;101348.69;;;24.26;100.00
6028;BME280;3042;43.194;27.646;2022-07-06T03:32:15;101350.41;;;24.30;100.00
6028;BME280;3042;43.194;27.646;2022-07-06T03:34:42;101358.31;;;24.39;100.00
6028;BME280;3042;43.194;27.646;2022-07-06T03:37:09;101368.84;;;24.60;100.00
6028;BME280;3042;43.194;27.646;2022-07-06T03:39:38;101382.88;;;24.81;100.00
6028;BME280;3042;43.194;27.646;2022-07-06T03:42:05;101366.16;;;24.82;100.00
6028;BME280;3042;43.194;27.646;2022-07-06T03:44:33;101365.19;;;24.95;100.00
6028;BME280;3042;43.194;27.646;2022-07-06T03:47:00;101373.84;;;25.28;100.00
6028;BME280;3042;43.194;27.646;2022-07-06T03:49:27;101363.19;;;25.40;100.00
6028;BME280;3042;43.194;27.646;2022-07-06T03:51:55;101384.09;;;25.74;100.00
6028;BME280;3042;43.194;27.646;2022-07-06T03:54:22;101389.19;;;25.99;100.00
6028;BME280;3042;43.194;27.646;2022-07-06T03:56:51;101398.59;;;26.33;100.00
6028;BME280;3042;43.194;27.646;2022-07-06T03:59:18;101392.22;;;26.50;100.00
6028;BME280;3042;43.194;27.646;2022-07-06T04:01:45;101389.28;;;26.76;100.00
6028;BME280;3042;43.194;27.646;2022-07-06T04:04:12;101394.28;;;27.02;100.00
6028;BME280;3042;43.194;27.646;2022-07-06T04:06:40;101398.28;;;27.34;100.00
6028;BME280;3042;43.194;27.646;2022-07-06T04:09:07;101389.25;;;27.47;100.00
6028;BME280;3042;43.194;27.646;2022-07-06T04:11:35;101394.28;;;27.63;100.00
6028;BME280;3042;43.194;27.646;2022-07-06T04:14:03;101403.72;;;27.84;100.00
6028;BME280;3042;43.194;27.646;2022-07-06T04:16:31;101399.78;;;28.08;100.00
6028;BME280;3042;43.194;27.646;2022-07-06T04:18:58;101408.25;;;28.28;100.00
6028;BME280;3042;43.194;27.646;2022-07-06T04:21:25;101403.56;;;28.42;100.00
6028;BME280;3042;43.194;27.646;2022-07-06T04:23:52;101415.63;;;28.62;100.00
6028;BME280;3042;43.194;27.646;2022-07-06T04:26:20;101422.97;;;28.93;100.00
6028;BME280;3042;43.194;27.646;2022-07-06T04:28:47;101428.50;;;29.25;100.00
6028;BME280;3042;43.194;27.646;2022-07-06T04:31:16;101443.56;;;29.65;100.00
6028;BME280;3042;43.194;27.646;2022-07-06T04:33:43;101448.19;;;29.96;100.00
6028;BME280;3042;43.194;27.646;2022-07-06T04:36:10;101439.75;;;30.13;100.00
6028;BME280;3042;43.194;27.646;2022-07-06T04:38:38;101444.78;;;30.25;100.00
6028;BME280;3042;43.194;27.646;2022-07-06T04:41:05;101449.91;;;30.66;100.00
6028;BME280;3042;43.194;27.646;2022-07-06T04:43:33;101425.75;;;30.72;100.00
6028;BME280;3042;43.194;27.646;2022-07-06T04:46:00;101453.59;;;31.24;100.00
6028;BME280;3042;43.194;27.646;2022-07-06T04:48:29;101464.41;;;31.78;100.00
6028;BME280;3042;43.194;27.646;2022-07-06T04:50:58;101467.00;;;32.34;100.00
6028;BME280;3042;43.194;27.646;2022-07-06T04:53:25;101468.00;;;32.56;100.00
6028;BME280;3042;43.194;27.646;2022-07-06T04:55:53;101467.16;;;33.05;100.00
6028;BME280;3042;43.194;27.646;2022-07-06T04:58:20;101466.13;;;33.31;100.00
6028;BME280;3042;43.194;27.646;2022-07-06T05:00:47;101469.56;;;33.58;100.00
6028;BME280;3042;43.194;27.646;2022-07-06T05:03:14;101451.34;;;33.66;100.00
6028;BME280;3042;43.194;27.646;2022-07-06T05:05:43;101426.72;;;33.34;100.00
6028;BME280;3042;43.194;27.646;2022-07-06T05:08:10;101387.34;;;33.13;100.00
6028;BME280;3042;43.194;27.646;2022-07-06T05:10:38;101439.47;;;33.50;100.00
6028;BME280;3042;43.194;27.646;2022-07-06T05:13:05;101441.25;;;33.51;100.00
6028;BME280;3042;43.194;27.646;2022-07-06T05:15:32;101429.22;;;33.61;100.00
6028;BME280;3042;43.194;27.646;2022-07-06T05:17:59;101463.38;;;34.00;100.00
6028;BME280;3042;43.194;27.646;2022-07-06T05:20:27;101469.47;;;34.25;100.00
6028;BME280;3042;43.194;27.646;2022-07-06T05:22:55;101494.44;;;34.68;100.00
6028;BME280;3042;43.194;27.646;2022-07-06T05:25:23;101468.59;;;35.05;98.23
6028;BME280;3042;43.194;27.646;2022-07-06T05:27:50;101479.41;;;35.42;93.02
6028;BME280;3042;43.194;27.646;2022-07-06T05:30:17;101486.81;;;35.56;92.68
6028;BME280;3042;43.194;27.646;2022-07-06T05:32:45;101506.22;;;35.99;92.44
6028;BME280;3042;43.194;27.646;2022-07-06T05:35:12;101483.59;;;36.03;91.28
6028;BME280;3042;43.194;27.646;2022-07-06T05:37:39;101440.06;;;35.58;91.36
6028;BME280;3042;43.194;27.646;2022-07-06T05:40:09;101467.00;;;35.95;91.08
6028;BME280;3042;43.194;27.646;2022-07-06T05:42:37;101492.03;;;36.31;89.53
6028;BME280;3042;43.194;27.646;2022-07-06T05:45:05;101504.47;;;36.69;88.08
6028;BME280;3042;43.194;27.646;2022-07-06T05:47:32;101500.59;;;37.08;86.99
6028;BME280;3042;43.194;27.646;2022-07-06T05:50:17;101480.88;;;37.07;85.03
6028;BME280;3042;43.194;27.646;2022-07-06T05:52:55;101457.41;;;37.09;84.76
6028;BME280;3042;43.194;27.646;2022-07-06T05:55:25;101508.75;;;37.55;83.60
6028;BME280;3042;43.194;27.646;2022-07-06T05:57:53;101525.06;;;38.00;82.90
6028;BME280;3042;43.194;27.646;2022-07-06T06:00:21;101529.84;;;38.71;81.99
6028;BME280;3042;43.194;27.646;2022-07-06T06:02:49;101498.56;;;38.67;78.63
6028;BME280;3042;43.194;27.646;2022-07-06T06:05:17;101540.38;;;39.33;78.94
6028;BME280;3042;43.194;27.646;2022-07-06T06:07:45;101405.41;;;38.87;76.35
6028;BME280;3042;43.194;27.646;2022-07-06T06:10:14;101516.03;;;39.89;75.45
6028;BME280;3042;43.194;27.646;2022-07-06T06:12:44;101518.34;;;40.35;74.00
6028;BME280;3042;43.194;27.646;2022-07-06T06:15:12;101513.91;;;40.85;72.36
6028;BME280;3042;43.194;27.646;2022-07-06T06:17:39;101471.63;;;40.83;70.64
6028;BME280;3042;43.194;27.646;2022-07-06T06:20:08;101542.00;;;41.96;70.79
6028;BME280;3042;43.194;27.646;2022-07-06T06:22:44;101546.06;;;42.50;67.18
6028;BME280;3042;43.194;27.646;2022-07-06T06:25:13;101531.22;;;42.66;66.46
6028;BME280;3042;43.194;27.646;2022-07-06T06:27:40;101511.47;;;42.52;67.41
6028;BME280;3042;43.194;27.646;2022-07-06T06:30:10;101464.91;;;42.33;65.14
6028;BME280;3042;43.194;27.646;2022-07-06T06:32:38;101382.63;;;42.08;64.40
6028;BME280;3042;43.194;27.646;2022-07-06T06:35:06;101526.84;;;43.32;62.60
6028;BME280;3042;43.194;27.646;2022-07-06T06:37:33;101545.53;;;43.80;62.43
6028;BME280;3042;43.194;27.646;2022-07-06T06:40:01;101530.16;;;43.91;61.33
6028;BME280;3042;43.194;27.646;2022-07-06T06:42:29;101425.44;;;42.51;62.85
6028;BME280;3042;43.194;27.646;2022-07-06T06:44:56;101451.91;;;43.49;61.63
6028;BME280;3042;43.194;27.646;2022-07-06T06:47:25;101538.44;;;44.54;60.06
6028;BME280;3042;43.194;27.646;2022-07-06T06:49:52;101425.69;;;44.22;59.13
6028;BME280;3042;43.194;27.646;2022-07-06T06:52:20;101488.69;;;44.71;58.13
6028;BME280;3042;43.194;27.646;2022-07-06T06:54:47;101389.28;;;43.06;59.57
6028;BME280;3042;43.194;27.646;2022-07-06T07:00:00;101331.88;;;41.03;63.45
6028;BME280;3042;43.194;27.646;2022-07-06T07:02:31;101110.66;;;38.89;64.71
6028;BME280;3042;43.194;27.646;2022-07-06T07:04:59;101253.84;;;38.34;67.80
6028;BME280;3042;43.194;27.646;2022-07-06T07:07:26;101027.22;;;36.91;69.65
6028;BME280;3042;43.194;27.646;2022-07-06T07:09:53;101278.94;;;38.36;70.43
6028;BME280;3042;43.194;27.646;2022-07-06T07:12:21;101282.22;;;38.41;70.79
6028;BME280;3042;43.194;27.646;2022-07-06T07:14:48;101184.63;;;37.33;69.73
6028;BME280;3042;43.194;27.646;2022-07-06T07:17:16;101248.00;;;37.40;70.86
6028;BME280;3042;43.194;27.646;2022-07-06T07:19:48;101304.75;;;37.97;70.63
6028;BME280;3042;43.194;27.646;2022-07-06T07:22:16;101291.16;;;37.99;71.23
6028;BME280;3042;43.194;27.646;2022-07-06T07:24:43;101302.69;;;38.03;71.29
6028;BME280;3042;43.194;27.646;2022-07-06T07:27:10;101309.91;;;38.16;71.27
6028;BME280;3042;43.194;27.646;2022-07-06T07:29:39;101247.69;;;37.89;71.36
6028;BME280;3042;43.194;27.646;2022-07-06T07:32:08;101233.63;;;37.84;70.46
6028;BME280;3042;43.194;27.646;2022-07-06T07:34:37;101310.00;;;38.29;68.75
6028;BME280;3042;43.194;27.646;2022-07-06T07:37:05;101294.75;;;38.14;68.93
6028;BME280;3042;43.194;27.646;2022-07-06T07:39:33;101221.38;;;37.64;70.96
6028;BME280;3042;43.194;27.646;2022-07-06T07:42:00;101315.78;;;38.23;72.12
6028;BME280;3042;43.194;27.646;2022-07-06T07:44:27;101305.00;;;38.09;73.87
6028;BME280;3042;43.194;27.646;2022-07-06T07:46:55;101290.88;;;37.89;75.77
6028;BME280;3042;43.194;27.646;2022-07-06T07:49:22;101247.41;;;37.35;75.48
6028;BME280;3042;43.194;27.646;2022-07-06T07:51:49;101296.84;;;37.80;74.37
6028;BME280;3042;43.194;27.646;2022-07-06T07:54:18;101318.13;;;38.15;72.47
6028;BME280;3042;43.194;27.646;2022-07-06T07:56:45;101294.72;;;37.99;72.80
6028;BME280;3042;43.194;27.646;2022-07-06T07:59:13;101311.16;;;38.11;71.83
6028;BME280;3042;43.194;27.646;2022-07-06T08:01:40;101251.75;;;37.37;74.39
6028;BME280;3042;43.194;27.646;2022-07-06T08:04:07;101186.59;;;36.99;73.23
6028;BME280;3042;43.194;27.646;2022-07-06T08:06:35;101260.13;;;37.33;74.87
6028;BME280;3042;43.194;27.646;2022-07-06T08:09:02;101244.59;;;37.36;73.57
6028;BME280;3042;43.194;27.646;2022-07-06T08:11:32;101282.25;;;37.54;73.14
6028;BME280;3042;43.194;27.646;2022-07-06T08:14:00;101166.19;;;36.65;72.47
6028;BME280;3042;43.194;27.646;2022-07-06T08:16:28;101279.94;;;37.32;73.60
6028;BME280;3042;43.194;27.646;2022-07-06T08:18:56;101303.38;;;37.62;72.83
6028;BME280;3042;43.194;27.646;2022-07-06T08:21:23;101302.59;;;37.74;73.09
6028;BME280;3042;43.194;27.646;2022-07-06T08:23:51;101296.81;;;37.66;71.44
6028;BME280;3042;43.194;27.646;2022-07-06T08:26:19;101290.28;;;37.70;70.68
6028;BME280;3042;43.194;27.646;2022-07-06T08:28:49;101121.97;;;36.53;68.42
6028;BME280;3042;43.194;27.646;2022-07-06T08:31:24;101240.00;;;37.53;68.06
6028;BME280;3042;43.194;27.646;2022-07-06T08:33:53;101267.06;;;37.37;71.02
6028;BME280;3042;43.194;27.646;2022-07-06T08:36:21;101101.16;;;36.09;70.28
6028;BME280;3042;43.194;27.646;2022-07-06T08:38:49;101250.22;;;37.17;69.28
6028;BME280;3042;43.194;27.646;2022-07-06T08:41:17;101302.59;;;37.74;69.29
6028;BME280;3042;43.194;27.646;2022-07-06T08:43:50;101295.84;;;37.67;70.06
6028;BME280;3042;43.194;27.646;2022-07-06T08:46:18;101295.50;;;37.73;67.76
6028;BME280;3042;43.194;27.646;2022-07-06T08:48:48;101274.47;;;37.64;67.52
6028;BME280;3042;43.194;27.646;2022-07-06T08:51:15;101261.28;;;37.43;67.62
6028;BME280;3042;43.194;27.646;2022-07-06T08:53:44;101304.19;;;37.92;66.69
6028;BME280;3042;43.194;27.646;2022-07-06T08:56:15;101285.97;;;37.82;65.37
6028;BME280;3042;43.194;27.646;2022-07-06T08:58:43;101262.19;;;37.58;66.20
6028;BME280;3042;43.194;27.646;2022-07-06T09:01:12;101268.00;;;37.66;65.86
6028;BME280;3042;43.194;27.646;2022-07-06T09:03:40;101229.88;;;37.28;65.41
6028;BME280;3042;43.194;27.646;2022-07-06T09:06:08;101230.41;;;37.18;67.36
6028;BME280;3042;43.194;27.646;2022-07-06T09:08:36;101239.03;;;37.39;65.03
6028;BME280;3042;43.194;27.646;2022-07-06T09:11:04;101265.59;;;37.62;65.47
6028;BME280;3042;43.194;27.646;2022-07-06T09:13:32;101274.13;;;37.84;65.88
6028;BME280;3042;43.194;27.646;2022-07-06T09:16:09;101299.22;;;38.15;64.42
6028;BME280;3042;43.194;27.646;2022-07-06T09:18:38;101177.22;;;37.06;63.14
6028;BME280;3042;43.194;27.646;2022-07-06T09:21:08;101249.03;;;37.68;64.14
6028;BME280;3042;43.194;27.646;2022-07-06T09:23:36;101236.66;;;37.49;64.49
6028;BME280;3042;43.194;27.646;2022-07-06T09:26:15;101223.53;;;37.43;64.37
6028;BME280;3042;43.194;27.646;2022-07-06T09:28:43;101269.66;;;37.83;64.13
6028;BME280;3042;43.194;27.646;2022-07-06T09:31:11;101248.28;;;37.80;64.52
6028;BME280;3042;43.194;27.646;2022-07-06T09:33:39;101253.88;;;37.77;64.16
6028;BME280;3042;43.194;27.646;2022-07-06T09:36:37;101275.09;;;38.12;63.14
6028;BME280;3042;43.194;27.646;2022-07-06T09:39:15;101266.81;;;38.00;62.87
6028;BME280;3042;43.194;27.646;2022-07-06T09:41:44;101294.06;;;38.39;62.66
6028;BME280;3042;43.194;27.646;2022-07-06T09:44:11;101205.75;;;37.55;62.76
6028;BME280;3042;43.194;27.646;2022-07-06T09:46:41;101209.47;;;37.38;62.66
6028;BME280;3042;43.194;27.646;2022-07-06T09:49:09;101155.50;;;37.09;63.31
6028;BME280;3042;43.194;27.646;2022-07-06T09:51:37;101221.66;;;37.59;60.76
6028;BME280;3042;43.194;27.646;2022-07-06T09:54:06;101215.69;;;37.54;59.91
6028;BME280;3042;43.194;27.646;2022-07-06T09:56:38;101158.22;;;37.24;59.43
6028;BME280;3042;43.194;27.646;2022-07-06T09:59:11;101180.38;;;37.43;60.16
6028;BME280;3042;43.194;27.646;2022-07-06T10:01:44;101205.56;;;37.58;59.04
6028;BME280;3042;43.194;27.646;2022-07-06T10:04:13;101232.28;;;37.91;59.42
6028;BME280;3042;43.194;27.646;2022-07-06T10:06:44;101221.09;;;37.83;59.12
6028;BME280;3042;43.194;27.646;2022-07-06T10:09:12;101213.75;;;38.14;57.04
6028;BME280;3042;43.194;27.646;2022-07-06T10:11:44;101184.47;;;37.93;56.50
6028;BME280;3042;43.194;27.646;2022-07-06T10:14:20;101159.56;;;37.45;57.70
6028;BME280;3042;43.194;27.646;2022-07-06T10:16:48;101201.13;;;37.71;57.81
6028;BME280;3042;43.194;27.646;2022-07-06T10:19:18;101203.84;;;37.86;57.25
6028;BME280;3042;43.194;27.646;2022-07-06T10:21:47;101213.88;;;37.98;56.56
6028;BME280;3042;43.194;27.646;2022-07-06T10:24:15;101202.59;;;37.91;55.98
6028;BME280;3042;43.194;27.646;2022-07-06T10:26:47;101149.47;;;37.49;55.46
6028;BME280;3042;43.194;27.646;2022-07-06T10:29:16;101196.13;;;37.94;57.85
6028;BME280;3042;43.194;27.646;2022-07-06T10:31:45;101167.50;;;37.63;57.02
6028;BME280;3042;43.194;27.646;2022-07-06T10:34:15;101112.59;;;37.21;55.38
6028;BME280;3042;43.194;27.646;2022-07-06T10:36:44;101229.84;;;38.30;53.83
6028;BME280;3042;43.194;27.646;2022-07-06T10:39:14;101191.03;;;38.04;53.15
6028;BME280;3042;43.194;27.646;2022-07-06T10:41:59;101168.88;;;37.70;53.35
6028;BME280;3042;43.194;27.646;2022-07-06T10:44:28;101241.22;;;38.49;54.09
6028;BME280;3042;43.194;27.646;2022-07-06T10:46:57;101259.16;;;38.77;55.76
6028;BME280;3042;43.194;27.646;2022-07-06T10:49:25;101253.75;;;38.77;55.31
6028;BME280;3042;43.194;27.646;2022-07-06T10:51:56;101223.16;;;38.64;53.55
6028;BME280;3042;43.194;27.646;2022-07-06T10:54:23;101234.84;;;38.77;54.29
6028;BME280;3042;43.194;27.646;2022-07-06T10:56:51;101191.91;;;38.46;52.91
6028;BME280;3042;43.194;27.646;2022-07-06T10:59:20;101203.09;;;38.54;53.73
6028;BME280;3042;43.194;27.646;2022-07-06T11:02:13;101215.38;;;38.72;52.39
6028;BME280;3042;43.194;27.646;2022-07-06T11:04:41;101212.69;;;38.72;52.72
6028;BME280;3042;43.194;27.646;2022-07-06T11:07:09;101212.53;;;38.61;55.18
6028;BME280;3042;43.194;27.646;2022-07-06T11:09:38;101050.84;;;37.59;53.93
6028;BME280;3042;43.194;27.646;2022-07-06T11:12:18;101214.97;;;38.78;53.75
6028;BME280;3042;43.194;27.646;2022-07-06T11:14:46;101128.34;;;38.13;55.01
6028;BME280;3042;43.194;27.646;2022-07-06T11:17:16;101199.78;;;38.63;55.29
6028;BME280;3042;43.194;27.646;2022-07-06T11:19:50;101229.03;;;38.83;55.69
6028;BME280;3042;43.194;27.646;2022-07-06T11:22:18;101225.44;;;38.97;54.85
6028;BME280;3042;43.194;27.646;2022-07-06T11:24:45;101218.78;;;39.16;54.60
6028;BME280;3042;43.194;27.646;2022-07-06T11:27:13;101226.81;;;39.17;54.62
6028;BME280;3042;43.194;27.646;2022-07-06T11:29:41;101228.28;;;39.21;54.48
6028;BME280;3042;43.194;27.646;2022-07-06T11:32:11;101241.84;;;39.34;54.26
6028;BME280;3042;43.194;27.646;2022-07-06T11:34:42;101233.53;;;39.24;54.71
6028;BME280;3042;43.194;27.646;2022-07-06T11:37:11;101239.47;;;39.30;55.58
6028;BME280;3042;43.194;27.646;2022-07-06T11:39:39;101258.47;;;39.55;55.08
6028;BME280;3042;43.194;27.646;2022-07-06T11:42:08;101254.91;;;39.67;53.24
6028;BME280;3042;43.194;27.646;2022-07-06T11:44:36;101237.00;;;39.52;53.90
6028;BME280;3042;43.194;27.646;2022-07-06T11:47:05;101240.47;;;39.54;53.08
6028;BME280;3042;43.194;27.646;2022-07-06T11:49:34;101166.25;;;38.80;54.35
6028;BME280;3042;43.194;27.646;2022-07-06T11:52:08;101179.53;;;38.83;55.07
6028;BME280;3042;43.194;27.646;2022-07-06T11:54:36;101138.84;;;38.72;53.84
6028;BME280;3042;43.194;27.646;2022-07-06T11:57:04;101204.72;;;39.23;54.60
6028;BME280;3042;43.194;27.646;2022-07-06T11:59:35;101172.69;;;38.92;54.91
6028;BME280;3042;43.194;27.646;2022-07-06T12:02:04;101196.47;;;39.12;55.78
6028;BME280;3042;43.194;27.646;2022-07-06T12:04:34;101200.63;;;39.18;55.10
6028;BME280;3042;43.194;27.646;2022-07-06T12:07:03;101132.69;;;38.70;56.06
6028;BME280;3042;43.194;27.646;2022-07-06T12:09:33;101187.81;;;39.07;56.39
6028;BME280;3042;43.194;27.646;2022-07-06T12:12:01;101165.78;;;38.86;55.36
6028;BME280;3042;43.194;27.646;2022-07-06T12:14:30;101157.25;;;38.79;55.81
6028;BME280;3042;43.194;27.646;2022-07-06T12:17:02;101167.28;;;38.92;56.16
6028;BME280;3042;43.194;27.646;2022-07-06T12:19:30;101138.38;;;38.52;56.87
6028;BME280;3042;43.194;27.646;2022-07-06T12:21:58;101155.16;;;38.70;57.13
6028;BME280;3042;43.194;27.646;2022-07-06T12:24:28;101110.78;;;38.20;56.67
6028;BME280;3042;43.194;27.646;2022-07-06T12:27:08;101122.06;;;38.39;56.28
6028;BME280;3042;43.194;27.646;2022-07-06T12:29:36;101151.34;;;38.60;58.34
6028;BME280;3042;43.194;27.646;2022-07-06T12:32:05;101128.03;;;38.59;56.62
6028;BME280;3042;43.194;27.646;2022-07-06T12:34:32;101103.66;;;38.46;56.93
6028;BME280;3042;43.194;27.646;2022-07-06T12:37:06;101089.19;;;38.20;56.54
6028;BME280;3042;43.194;27.646;2022-07-06T12:39:41;101127.16;;;38.44;58.07
6028;BME280;3042;43.194;27.646;2022-07-06T12:42:13;101132.13;;;38.64;57.46
6028;BME280;3042;43.194;27.646;2022-07-06T12:44:46;101114.38;;;38.48;57.36
6028;BME280;3042;43.194;27.646;2022-07-06T12:47:17;101147.09;;;38.83;57.45
6028;BME280;3042;43.194;27.646;2022-07-06T12:49:45;101129.97;;;38.70;57.61
6028;BME280;3042;43.194;27.646;2022-07-06T12:52:13;101103.13;;;38.54;57.47
6028;BME280;3042;43.194;27.646;2022-07-06T12:54:42;101147.56;;;38.90;57.26
6028;BME280;3042;43.194;27.646;2022-07-06T12:57:14;101129.13;;;38.69;58.14
6028;BME280;3042;43.194;27.646;2022-07-06T12:59:44;101095.50;;;38.33;58.29
6028;BME280;3042;43.194;27.646;2022-07-06T13:02:19;101102.41;;;38.37;58.39
6028;BME280;3042;43.194;27.646;2022-07-06T13:04:55;101098.16;;;38.48;58.97